Time;durP1;ratioP1;P1;durP2;ratioP2;P2;SDS_P1;SDS_P2;PMS_P1;PMS_P2;Temp;Humidity;BMP_temperature;BMP_pressure;BME280_temperature;BME280_humidity;BME280_pressure;Samples;Min_cycle;Max_cycle;Signal;HPM_P1;HPM_P2
2022/04/20 00:00:59;;;;;;;30.38;19.27;;;8.80;99.90;;;;;;5050544;28;20076;-80
2022/04/20 00:03:25;;;;;;;23.65;16.88;;;8.80;99.90;;;;;;5052016;28;20044;-79
2022/04/20 00:05:51;;;;;;;33.58;21.70;;;8.50;99.90;;;;;;5052231;28;20036;-80
2022/04/20 00:08:17;;;;;;;48.45;26.85;;;8.30;99.90;;;;;;5052361;28;20021;-80
2022/04/20 00:10:42;;;;;;;30.38;20.02;;;8.50;99.90;;;;;;5052401;28;20025;-80
2022/04/20 00:13:09;;;;;;;35.80;23.70;;;8.60;99.90;;;;;;5051916;28;20032;-80
2022/04/20 00:15:35;;;;;;;33.72;22.40;;;8.60;99.90;;;;;;5052370;28;20017;-80
2022/04/20 00:18:01;;;;;;;38.33;23.95;;;8.70;99.90;;;;;;5050671;28;20483;-80
2022/04/20 00:20:27;;;;;;;35.28;21.83;;;8.70;99.90;;;;;;5050535;28;20508;-80
2022/04/20 00:22:53;;;;;;;32.63;22.77;;;8.70;99.90;;;;;;5052482;28;20029;-81
2022/04/20 00:25:19;;;;;;;34.50;22.08;;;8.60;99.90;;;;;;5051647;28;20024;-80
2022/04/20 00:27:44;;;;;;;37.58;25.15;;;8.60;99.90;;;;;;5052097;28;20060;-80
2022/04/20 00:30:12;;;;;;;42.22;24.13;;;8.50;99.90;;;;;;5050838;28;20415;-80
2022/04/20 00:32:39;;;;;;;42.05;25.52;;;8.60;99.90;;;;;;5050649;28;20086;-80
2022/04/20 00:35:06;;;;;;;38.03;24.67;;;8.60;99.90;;;;;;5049349;28;20452;-81
2022/04/20 00:37:36;;;;;;;44.42;27.40;;;8.60;99.90;;;;;;5050762;28;20040;-81
2022/04/20 00:40:03;;;;;;;46.33;30.02;;;8.70;99.90;;;;;;5051784;28;20024;-81
2022/04/20 00:42:31;;;;;;;41.60;26.20;;;8.70;99.90;;;;;;5050661;28;20021;-80
2022/04/20 00:44:57;;;;;;;38.30;24.70;;;8.70;99.90;;;;;;5051943;28;20036;-80
2022/04/20 00:47:24;;;;;;;38.90;24.50;;;8.70;99.90;;;;;;5050610;28;20025;-80
2022/04/20 00:49:51;;;;;;;37.15;24.00;;;8.60;99.90;;;;;;5050579;28;20029;-81
2022/04/20 00:52:17;;;;;;;37.78;23.90;;;8.60;99.90;;;;;;5052097;28;20096;-81
2022/04/20 00:54:43;;;;;;;36.13;24.55;;;8.60;99.90;;;;;;5051936;28;20024;-81
2022/04/20 00:57:09;;;;;;;39.45;25.77;;;8.60;99.90;;;;;;5051536;28;20107;-81
2022/04/20 00:59:36;;;;;;;42.75;27.45;;;8.50;99.90;;;;;;5051460;28;20452;-81
2022/04/20 01:02:03;;;;;;;37.80;22.83;;;8.50;99.90;;;;;;5050348;28;20051;-81
2022/04/20 01:04:32;;;;;;;29.48;21.27;;;8.50;99.90;;;;;;5051557;28;20033;-81
2022/04/20 01:07:13;;;;;;;37.42;24.90;;;8.60;99.90;;;;;;5050267;28;20120;-82
2022/04/20 01:09:40;;;;;;;38.38;24.10;;;8.70;99.90;;;;;;5049594;28;20057;-81
2022/04/20 01:12:06;;;;;;;42.90;25.92;;;8.60;99.90;;;;;;5049185;28;20075;-82
2022/04/20 01:14:32;;;;;;;61.03;33.45;;;8.50;99.90;;;;;;5051460;28;20025;-79
2022/04/20 01:16:58;;;;;;;55.45;32.08;;;8.50;99.90;;;;;;5051329;28;20106;-81
2022/04/20 01:19:35;;;;;;;59.42;32.58;;;8.50;99.90;;;;;;5051719;28;20028;-81
2022/04/20 01:22:02;;;;;;;53.42;30.83;;;8.50;99.90;;;;;;5051180;28;20498;-81
2022/04/20 01:24:28;;;;;;;55.75;32.65;;;8.40;99.90;;;;;;5051596;28;20025;-81
2022/04/20 01:26:56;;;;;;;56.10;31.98;;;8.50;99.90;;;;;;5050182;28;20060;-80
2022/04/20 01:29:22;;;;;;;41.97;26.73;;;8.60;99.90;;;;;;5051719;28;20025;-80
2022/04/20 01:31:48;;;;;;;40.85;27.73;;;8.60;99.90;;;;;;5051742;28;20029;-83
2022/04/20 01:34:14;;;;;;;34.63;24.33;;;8.60;99.90;;;;;;5053688;28;20051;-80
2022/04/20 01:36:39;;;;;;;34.83;25.10;;;8.50;99.90;;;;;;5055092;28;20021;-80
2022/04/20 01:39:05;;;;;;;38.72;26.42;;;8.40;99.90;;;;;;5052270;28;20021;-80
2022/04/20 01:41:31;;;;;;;38.80;26.98;;;8.50;99.90;;;;;;5054532;28;20029;-80
2022/04/20 01:43:57;;;;;;;42.42;30.05;;;8.40;99.90;;;;;;5054894;28;20044;-80
2022/04/20 01:46:23;;;;;;;38.83;26.63;;;8.50;99.90;;;;;;5053535;28;20047;-80
2022/04/20 01:48:49;;;;;;;36.08;25.77;;;8.40;99.90;;;;;;5053072;28;20032;-80
2022/04/20 01:54:00;;;;;;;36.90;26.25;;;8.20;99.90;;;;;;5054062;28;20120;-80
2022/04/20 01:56:25;;;;;;;38.10;28.45;;;8.30;99.90;;;;;;5050622;28;20114;-79
2022/04/20 01:58:51;;;;;;;39.28;27.05;;;8.30;99.90;;;;;;5054390;28;20100;-80
2022/04/20 02:04:01;;;;;;;42.47;29.45;;;8.30;99.90;;;;;;5053860;28;20383;-80
2022/04/20 02:06:27;;;;;;;38.83;27.55;;;8.40;99.90;;;;;;5053143;28;20029;-79
2022/04/20 02:08:53;;;;;;;36.13;26.40;;;8.40;99.90;;;;;;5053028;28;20349;-81
2022/04/20 02:11:19;;;;;;;45.28;28.98;;;8.30;99.90;;;;;;5053565;28;20390;-79
2022/04/20 02:13:44;;;;;;;36.88;27.02;;;8.30;99.90;;;;;;5054051;28;20021;-80
2022/04/20 02:16:10;;;;;;;39.08;27.63;;;8.30;99.90;;;;;;5054170;28;20025;-81
2022/04/20 02:18:36;;;;;;;47.70;29.30;;;8.20;99.90;;;;;;5054376;28;20017;-81
2022/04/20 02:21:02;;;;;;;41.78;29.50;;;8.30;99.90;;;;;;5052765;28;20025;-79
2022/04/20 02:23:28;;;;;;;43.08;31.55;;;8.30;99.90;;;;;;5052787;28;20086;-81
2022/04/20 02:25:54;;;;;;;47.03;32.58;;;8.30;99.90;;;;;;5052976;28;20033;-80
2022/04/20 02:28:20;;;;;;;43.10;30.77;;;8.30;99.90;;;;;;5052872;28;20513;-82
2022/04/20 02:30:46;;;;;;;46.13;30.92;;;8.30;99.90;;;;;;5053949;28;20486;-80
2022/04/20 02:33:11;;;;;;;43.40;31.77;;;8.30;99.90;;;;;;5052343;28;20207;-79
2022/04/20 02:35:39;;;;;;;43.20;30.88;;;8.20;99.90;;;;;;5054071;28;20028;-79
2022/04/20 02:38:07;;;;;;;50.70;33.00;;;8.10;99.90;;;;;;5053721;28;20024;-80
2022/04/20 02:40:33;;;;;;;47.70;30.40;;;8.10;99.90;;;;;;5053833;28;20142;-79
2022/04/20 02:42:59;;;;;;;45.42;31.70;;;8.00;99.90;;;;;;5052359;28;20059;-80
2022/04/20 02:45:25;;;;;;;43.60;30.35;;;8.00;99.90;;;;;;5052313;28;20100;-80
2022/04/20 02:47:50;;;;;;;40.97;29.38;;;8.00;99.90;;;;;;5053220;28;20029;-80
2022/04/20 02:50:16;;;;;;;43.33;30.13;;;8.00;99.90;;;;;;5053800;28;20021;-78
2022/04/20 02:52:45;;;;;;;47.05;31.02;;;8.00;99.90;;;;;;5053399;28;20047;-80
2022/04/20 02:55:11;;;;;;;44.83;31.95;;;7.90;99.90;;;;;;5053482;28;20028;-79
2022/04/20 02:57:39;;;;;;;44.15;30.90;;;8.00;99.90;;;;;;5052356;28;20025;-79
2022/04/20 03:00:09;;;;;;;45.40;32.60;;;7.90;99.90;;;;;;5052769;28;20068;-80
2022/04/20 03:02:34;;;;;;;41.97;28.85;;;7.90;99.90;;;;;;5051817;28;20027;-78
2022/04/20 03:05:00;;;;;;;46.80;33.25;;;7.90;99.90;;;;;;5052161;28;20028;-81
2022/04/20 03:07:27;;;;;;;38.97;28.48;;;7.90;99.90;;;;;;5053338;28;20033;-79
2022/04/20 03:09:55;;;;;;;39.03;29.08;;;7.80;99.90;;;;;;5053285;28;20383;-78
2022/04/20 03:12:21;;;;;;;37.92;27.55;;;7.80;99.90;;;;;;5054461;28;20078;-81
2022/04/20 03:14:51;;;;;;;39.78;29.38;;;7.80;99.90;;;;;;5053359;28;20412;-80
2022/04/20 03:17:20;;;;;;;39.20;28.02;;;7.70;99.90;;;;;;5054509;28;20029;-80
2022/04/20 03:19:46;;;;;;;41.47;28.40;;;7.70;99.90;;;;;;5053119;28;20049;-80
2022/04/20 03:22:21;;;;;;;42.38;29.58;;;7.70;99.90;;;;;;5054683;28;20534;-80
2022/04/20 03:24:56;;;;;;;40.60;27.42;;;7.80;99.90;;;;;;5054402;28;20017;-79
2022/04/20 03:27:22;;;;;;;42.55;28.30;;;7.80;99.90;;;;;;5054264;28;20040;-79
2022/04/20 03:33:05;;;;;;;33.63;23.85;;;7.80;99.90;;;;;;5030734;28;20025;-79
2022/04/20 03:35:34;;;;;;;32.10;20.70;;;7.70;99.90;;;;;;5031871;28;20522;-79
2022/04/20 03:38:22;;;;;;;27.40;20.02;;;7.80;99.90;;;;;;5031743;28;20053;-80
2022/04/20 03:40:48;;;;;;;28.85;20.33;;;7.70;99.90;;;;;;5031550;28;20484;-79
2022/04/20 03:43:14;;;;;;;29.52;22.13;;;7.70;99.90;;;;;;5031606;28;20076;-79
2022/04/20 03:45:43;;;;;;;31.05;23.15;;;7.60;99.90;;;;;;5031992;28;20144;-79
2022/04/20 03:55:30;;;;;;;26.92;18.38;;;7.60;99.90;;;;;;4971988;28;20100;-80
2022/04/20 04:36:43;;;;;;;28.83;18.75;;;7.30;99.90;;;;;;4914858;29;20538;-80
2022/04/20 05:53:22;;;;;;;57.47;31.27;;;7.60;99.90;;;;;;5149075;24;20065;-80
2022/04/20 06:59:53;;;;;;;12.50;9.45;;;7.40;99.90;;;;;;4843993;29;20516;-79
2022/04/20 07:02:21;;;;;;;29.75;21.55;;;7.40;99.90;;;;;;4828143;29;20129;-78
2022/04/20 07:04:47;;;;;;;26.50;20.30;;;7.40;99.90;;;;;;4827625;29;20488;-78
2022/04/20 07:07:13;;;;;;;24.83;17.73;;;7.40;99.90;;;;;;4843694;29;20054;-77
2022/04/20 07:09:38;;;;;;;26.60;16.38;;;7.40;99.90;;;;;;4844131;29;20407;-78
2022/04/20 07:12:04;;;;;;;23.63;14.38;;;7.40;99.90;;;;;;4826940;29;20030;-79
2022/04/20 07:14:37;;;;;;;22.08;13.63;;;7.40;99.90;;;;;;4843714;29;20093;-79
2022/04/20 07:17:03;;;;;;;14.68;10.85;;;7.40;99.90;;;;;;4826893;29;20049;-79
2022/04/20 07:19:31;;;;;;;12.38;9.13;;;7.40;99.90;;;;;;4827158;29;20017;-78
2022/04/20 07:21:57;;;;;;;14.50;9.48;;;7.40;99.90;;;;;;4827448;29;20033;-78
2022/04/20 07:24:23;;;;;;;15.43;10.10;;;7.40;99.90;;;;;;4843804;29;20361;-77
2022/04/20 07:26:48;;;;;;;15.45;11.02;;;7.30;99.90;;;;;;4827446;29;20029;-78
2022/04/20 07:29:17;;;;;;;21.98;12.88;;;7.30;99.90;;;;;;4826772;29;20056;-79
2022/04/20 07:31:43;;;;;;;25.30;16.50;;;7.40;99.90;;;;;;4843621;29;20026;-77
2022/04/20 07:34:09;;;;;;;24.95;18.05;;;7.40;99.90;;;;;;4843605;29;20022;-78
2022/04/20 07:36:34;;;;;;;28.90;19.75;;;7.30;99.90;;;;;;4843585;29;20077;-77
2022/04/20 07:39:03;;;;;;;24.02;17.38;;;7.30;99.90;;;;;;4843710;29;20339;-78
2022/04/20 07:41:29;;;;;;;26.63;19.17;;;7.20;99.90;;;;;;4843573;29;20058;-77
2022/04/20 07:43:55;;;;;;;24.27;17.70;;;7.10;99.90;;;;;;4843628;29;20101;-77
2022/04/20 07:46:22;;;;;;;19.90;14.55;;;7.10;99.90;;;;;;4843455;29;20040;-77
2022/04/20 07:48:51;;;;;;;20.25;14.63;;;7.00;99.90;;;;;;4827037;29;20034;-78
2022/04/20 07:51:17;;;;;;;22.60;14.77;;;7.10;99.90;;;;;;4843397;29;20033;-77
2022/04/20 07:53:43;;;;;;;24.00;16.95;;;7.00;99.90;;;;;;4843306;29;20483;-77
2022/04/20 07:56:10;;;;;;;27.63;19.20;;;7.10;99.90;;;;;;4843047;29;20030;-77
2022/04/20 07:58:36;;;;;;;28.42;19.10;;;7.10;99.90;;;;;;4823783;29;20103;-76
2022/04/20 08:01:02;;;;;;;31.35;20.08;;;7.00;99.90;;;;;;4825072;29;20030;-77
2022/04/20 08:03:28;;;;;;;46.15;30.55;;;7.10;99.90;;;;;;4823003;29;20513;-77
2022/04/20 08:05:56;;;;;;;43.90;26.30;;;7.10;99.90;;;;;;4824777;29;20022;-77
2022/04/20 08:08:23;;;;;;;37.35;19.25;;;7.20;99.90;;;;;;4823925;29;20058;-77
2022/04/20 08:10:49;;;;;;;36.33;22.60;;;7.10;99.90;;;;;;4825088;29;20048;-77
2022/04/20 08:16:00;;;;;;;23.20;15.02;;;7.30;99.90;;;;;;4825080;29;20037;-77
2022/04/20 08:18:27;;;;;;;29.30;17.88;;;7.20;99.90;;;;;;4823859;29;20079;-76
2022/04/20 08:20:53;;;;;;;21.65;14.63;;;7.30;99.90;;;;;;4823567;29;20113;-77
2022/04/20 08:23:20;;;;;;;18.92;13.00;;;7.20;99.90;;;;;;4824702;29;20102;-78
2022/04/20 08:25:46;;;;;;;25.63;16.63;;;7.20;99.90;;;;;;4824729;29;20030;-78
2022/04/20 08:28:13;;;;;;;25.20;18.25;;;7.20;99.90;;;;;;4824403;29;20030;-78
2022/04/20 08:30:40;;;;;;;18.35;13.70;;;7.30;99.90;;;;;;4823527;29;20351;-78
2022/04/20 08:33:07;;;;;;;18.75;13.23;;;7.20;99.90;;;;;;4823699;29;20026;-77
2022/04/20 08:35:37;;;;;;;23.30;14.52;;;7.20;99.90;;;;;;4823550;29;20034;-78
2022/04/20 08:38:07;;;;;;;20.20;13.43;;;7.20;99.90;;;;;;4823607;29;20473;-80
2022/04/20 08:40:33;;;;;;;20.92;14.02;;;7.20;99.90;;;;;;4824642;29;20054;-77
2022/04/20 08:43:05;;;;;;;34.75;19.30;;;7.30;99.90;;;;;;4828176;29;20022;-80
2022/04/20 08:45:37;;;;;;;81.63;33.55;;;7.30;99.90;;;;;;4827087;29;20514;-78
2022/04/20 08:48:03;;;;;;;158.90;65.47;;;7.40;99.90;;;;;;4828137;29;20047;-77
2022/04/20 08:50:29;;;;;;;255.00;101.07;;;7.30;99.90;;;;;;4827048;29;20059;-78
2022/04/20 08:52:57;;;;;;;256.77;102.25;;;7.40;99.90;;;;;;4826869;29;20065;-78
2022/04/20 08:55:22;;;;;;;54.72;27.60;;;7.50;99.90;;;;;;4827704;29;20022;-78
2022/04/20 08:57:50;;;;;;;163.98;77.43;;;7.40;99.90;;;;;;4836171;29;20106;-78
2022/04/20 09:00:22;;;;;;;54.03;28.65;;;7.30;99.90;;;;;;4846109;29;20050;-77
2022/04/20 09:02:52;;;;;;;34.35;15.63;;;7.40;99.90;;;;;;4846174;29;20112;-77
2022/04/20 09:05:18;;;;;;;11.70;7.50;;;7.20;99.90;;;;;;4846478;29;20109;-78
2022/04/20 09:07:44;;;;;;;14.60;9.00;;;7.20;99.90;;;;;;4846354;29;20022;-79
2022/04/20 09:10:10;;;;;;;17.02;10.07;;;7.10;99.90;;;;;;4846058;29;20112;-77
2022/04/20 09:12:42;;;;;;;14.52;8.73;;;7.20;99.90;;;;;;4846184;29;20571;-80
2022/04/20 09:15:09;;;;;;;15.77;9.15;;;7.20;99.90;;;;;;4846267;29;20053;-77
2022/04/20 09:17:41;;;;;;;12.38;7.97;;;7.20;99.90;;;;;;4845644;29;20529;-76
2022/04/20 09:20:09;;;;;;;18.67;10.93;;;7.40;99.90;;;;;;4829773;29;20390;-78
2022/04/20 09:22:35;;;;;;;19.08;10.80;;;7.40;99.90;;;;;;4846116;29;20032;-76
2022/04/20 09:25:14;;;;;;;16.65;9.25;;;7.60;99.90;;;;;;4845541;29;20086;-79
2022/04/20 09:27:42;;;;;;;13.10;8.55;;;7.80;99.90;;;;;;4845589;29;20030;-77
2022/04/20 09:30:15;;;;;;;18.67;10.68;;;8.00;99.90;;;;;;4845735;29;20849;-77
2022/04/20 09:32:45;;;;;;;19.38;8.82;;;8.10;99.90;;;;;;4845685;29;20033;-76
2022/04/20 09:35:16;;;;;;;20.95;9.85;;;8.10;99.90;;;;;;4845784;29;20053;-76
2022/04/20 09:37:43;;;;;;;23.08;11.52;;;8.20;99.90;;;;;;4845745;29;20453;-77
2022/04/20 09:40:11;;;;;;;15.10;8.73;;;8.40;99.90;;;;;;4845626;29;20455;-75
2022/04/20 09:42:39;;;;;;;18.38;12.45;;;8.50;99.90;;;;;;4845775;29;20022;-75
2022/04/20 09:45:07;;;;;;;13.50;9.05;;;8.70;99.90;;;;;;4845153;29;20082;-75
2022/04/20 09:50:25;;;;;;;30.92;12.65;;;8.90;99.90;;;;;;4845761;29;20398;-77
2022/04/20 09:52:55;;;;;;;14.82;7.20;;;9.10;99.90;;;;;;4844361;29;20116;-75
2022/04/20 09:55:31;;;;;;;22.85;10.50;;;9.70;99.90;;;;;;4828873;29;20030;-78
2022/04/20 09:58:18;;;;;;;18.30;12.02;;;10.70;99.90;;;;;;4845207;29;20046;-76
2022/04/20 10:00:53;;;;;;;11.45;7.82;;;10.70;99.90;;;;;;4845333;29;20029;-77
2022/04/20 10:03:31;;;;;;;17.38;11.35;;;10.30;99.90;;;;;;4845102;29;20022;-76
2022/04/20 10:05:58;;;;;;;20.10;11.25;;;10.30;99.90;;;;;;4845158;29;20110;-75
2022/04/20 10:08:23;;;;;;;18.85;11.02;;;10.70;99.90;;;;;;4828657;29;20377;-75
2022/04/20 10:10:52;;;;;;;17.92;9.77;;;11.20;99.90;;;;;;4845241;29;20030;-77
2022/04/20 10:13:19;;;;;;;22.88;15.27;;;11.20;99.90;;;;;;4844849;29;20018;-75
2022/04/20 10:18:39;;;;;;;24.98;16.25;;;10.60;99.90;;;;;;4844935;29;20041;-75
2022/04/20 10:21:08;;;;;;;22.02;15.40;;;10.60;99.90;;;;;;4844908;29;20472;-77
2022/04/20 10:23:35;;;;;;;20.42;13.13;;;10.60;99.90;;;;;;4844864;29;20385;-75
2022/04/20 10:26:07;;;;;;;18.42;11.75;;;10.50;99.90;;;;;;4845012;29;20061;-76
2022/04/20 10:28:50;;;;;;;12.75;10.38;;;10.60;99.90;;;;;;4844727;29;20026;-77
2022/04/20 10:31:38;;;;;;;21.00;15.60;;;10.60;99.90;;;;;;4828598;29;20377;-77
2022/04/20 10:34:05;;;;;;;27.88;18.42;;;10.30;99.90;;;;;;4829901;29;20159;-77
2022/04/20 10:36:32;;;;;;;18.80;15.10;;;10.30;99.90;;;;;;4844411;29;20038;-77
2022/04/20 10:39:20;;;;;;;18.70;13.70;;;10.40;99.90;;;;;;4844798;29;20052;-76
2022/04/20 10:42:17;;;;;;;21.92;15.32;;;10.00;99.90;;;;;;4844604;29;20030;-75
2022/04/20 10:45:01;;;;;;;18.73;15.23;;;10.60;99.90;;;;;;4844387;29;20053;-77
2022/04/20 10:47:30;;;;;;;19.42;14.18;;;10.60;99.90;;;;;;4844426;29;20090;-76
2022/04/20 10:50:17;;;;;;;20.08;15.57;;;10.40;99.90;;;;;;4844438;29;20112;-77
2022/04/20 10:52:46;;;;;;;29.30;20.60;;;10.00;99.90;;;;;;4844524;29;20026;-76
2022/04/20 10:55:13;;;;;;;86.65;44.17;;;10.00;99.90;;;;;;4827769;29;20026;-76
2022/04/20 10:57:41;;;;;;;84.43;40.70;;;10.50;99.90;;;;;;4827571;29;20397;-77
2022/04/20 11:00:21;;;;;;;49.63;25.85;;;10.60;99.90;;;;;;4844018;29;20411;-78
2022/04/20 11:02:51;;;;;;;49.78;28.30;;;10.80;99.90;;;;;;4844369;29;20554;-77
2022/04/20 11:05:21;;;;;;;48.22;28.23;;;11.30;99.90;;;;;;4844117;29;20022;-78
2022/04/20 11:08:14;;;;;;;25.88;19.02;;;11.50;99.90;;;;;;4827653;29;20466;-76
2022/04/20 11:19:54;;;;;;;67.75;40.65;;;10.80;99.90;;;;;;4751726;30;20070;-76
2022/04/20 11:22:21;;;;;;;35.90;26.35;;;11.00;99.90;;;;;;4751634;30;20123;-76
2022/04/20 11:24:57;;;;;;;32.15;22.85;;;11.70;99.90;;;;;;4751718;30;20028;-78
2022/04/20 11:27:33;;;;;;;24.58;19.20;;;12.10;99.90;;;;;;4751588;30;20405;-75
2022/04/20 11:29:59;;;;;;;32.63;20.75;;;12.30;99.90;;;;;;4751660;30;20119;-77
2022/04/20 11:32:26;;;;;;;29.80;20.27;;;12.30;99.90;;;;;;4751393;30;20030;-78
2022/04/20 11:35:07;;;;;;;35.30;25.50;;;11.90;99.90;;;;;;4751726;30;20048;-76
2022/04/20 11:37:33;;;;;;;28.15;21.42;;;11.80;99.90;;;;;;4751277;30;20509;-77
2022/04/20 11:40:00;;;;;;;37.03;24.60;;;11.70;99.90;;;;;;4749900;30;20028;-78
2022/04/20 11:42:26;;;;;;;33.70;23.92;;;11.40;99.90;;;;;;4750805;30;20028;-76
2022/04/20 11:44:52;;;;;;;37.90;27.52;;;11.00;99.90;;;;;;4750369;30;20093;-74
2022/04/20 11:47:18;;;;;;;32.75;23.00;;;10.90;99.90;;;;;;4785368;29;20049;-77
2022/04/20 11:49:48;;;;;;;64.45;35.13;;;10.60;99.90;;;;;;4842780;29;20041;-74
2022/04/20 11:52:18;;;;;;;41.50;25.55;;;10.70;99.90;;;;;;4843192;29;20022;-75
2022/04/20 11:54:46;;;;;;;55.90;37.13;;;10.50;99.90;;;;;;4842250;29;20351;-75
2022/04/20 11:57:15;;;;;;;75.32;46.67;;;10.70;99.90;;;;;;4842479;29;20128;-74
2022/04/20 11:59:43;;;;;;;112.30;57.13;;;10.80;99.90;;;;;;4842872;29;20087;-76
2022/04/20 12:02:12;;;;;;;38.78;25.85;;;10.90;99.90;;;;;;4842984;29;20021;-75
2022/04/20 12:04:39;;;;;;;48.30;28.02;;;11.10;99.90;;;;;;4842662;29;20049;-75
2022/04/20 12:07:05;;;;;;;44.88;28.65;;;11.20;99.90;;;;;;4842385;29;20032;-75
2022/04/20 12:09:35;;;;;;;105.25;50.40;;;11.60;99.90;;;;;;4842470;29;20124;-75
2022/04/20 12:12:02;;;;;;;55.65;31.75;;;12.30;99.90;;;;;;4842235;29;20026;-77
2022/04/20 12:14:38;;;;;;;32.42;21.02;;;13.20;99.90;;;;;;4842273;29;20022;-75
2022/04/20 12:17:11;;;;;;;20.90;16.67;;;13.80;99.90;;;;;;4839409;29;20034;-74
2022/04/20 12:19:42;;;;;;;30.73;20.95;;;14.00;99.90;;;;;;4842429;29;20026;-77
2022/04/20 12:22:09;;;;;;;26.20;18.55;;;14.20;99.90;;;;;;4842453;29;20110;-75
2022/04/20 12:24:37;;;;;;;54.15;29.75;;;14.20;99.90;;;;;;4825854;29;20026;-75
2022/04/20 12:27:04;;;;;;;19.55;15.57;;;14.30;99.90;;;;;;4842095;29;20034;-74
2022/04/20 12:29:33;;;;;;;32.42;19.13;;;14.60;99.90;;;;;;4842127;29;20026;-74
2022/04/20 12:32:00;;;;;;;39.58;25.02;;;14.20;99.90;;;;;;4841709;29;20029;-76
2022/04/20 12:34:28;;;;;;;27.85;19.63;;;13.70;99.90;;;;;;4842480;29;20053;-76
2022/04/20 12:37:08;;;;;;;37.00;27.38;;;13.20;99.90;;;;;;4842148;29;20030;-76
2022/04/20 12:39:38;;;;;;;41.67;27.02;;;12.10;99.90;;;;;;4842514;29;20026;-77
2022/04/20 12:42:10;;;;;;;34.47;23.60;;;11.70;99.90;;;;;;4841865;29;20454;-78
2022/04/20 12:44:46;;;;;;;36.13;24.50;;;11.10;99.90;;;;;;4842101;29;20045;-78
2022/04/20 12:47:14;;;;;;;32.15;22.98;;;10.60;99.90;;;;;;4841901;29;20065;-77
2022/04/20 12:49:41;;;;;;;44.28;29.25;;;10.40;99.90;;;;;;4842285;29;20071;-77
2022/04/20 12:52:17;;;;;;;44.88;32.58;;;10.50;99.90;;;;;;4842122;29;20050;-77
2022/04/20 12:55:00;;;;;;;40.33;25.80;;;10.70;99.90;;;;;;4842224;29;20105;-78
2022/04/20 13:03:23;;;;;;;28.52;17.65;;;10.80;99.90;;;;;;4841737;29;20098;-76
2022/04/20 13:05:49;;;;;;;23.33;17.25;;;11.50;99.90;;;;;;4841255;29;20037;-76
2022/04/20 13:08:15;;;;;;;23.55;16.02;;;12.20;99.90;;;;;;4842018;29;20034;-75
2022/04/20 13:10:51;;;;;;;22.27;17.38;;;11.90;99.90;;;;;;4842044;29;20030;-76
2022/04/20 13:13:17;;;;;;;76.65;42.63;;;11.80;99.90;;;;;;4841941;29;20033;-76
2022/04/20 13:15:43;;;;;;;148.85;77.72;;;12.60;99.90;;;;;;4841896;29;20117;-78
2022/04/20 13:18:09;;;;;;;52.53;29.83;;;13.30;99.90;;;;;;4842100;29;20065;-76
2022/04/20 13:20:35;;;;;;;47.53;28.08;;;13.60;99.90;;;;;;4842002;29;20028;-77
2022/04/20 13:23:02;;;;;;;49.58;27.95;;;13.70;99.90;;;;;;4841587;29;20069;-76
2022/04/20 13:28:12;;;;;;;59.50;32.13;;;13.90;96.20;;;;;;4843922;29;20106;-74
2022/04/20 13:30:39;;;;;;;76.22;37.08;;;14.30;99.90;;;;;;4844624;29;20432;-78
2022/04/20 13:33:13;;;;;;;41.88;24.65;;;14.80;99.80;;;;;;4842176;29;20120;-78
2022/04/20 13:35:40;;;;;;;22.05;12.88;;;14.70;95.40;;;;;;4843755;29;20089;-78
2022/04/20 13:38:06;;;;;;;33.95;18.17;;;14.40;88.20;;;;;;4843468;29;20528;-77
2022/04/20 13:40:33;;;;;;;71.55;28.10;;;14.70;88.60;;;;;;4843519;29;20601;-78
2022/04/20 13:43:00;;;;;;;55.83;23.00;;;15.10;91.70;;;;;;4843227;29;20113;-76
2022/04/20 13:45:26;;;;;;;56.53;22.85;;;15.30;88.30;;;;;;4843765;29;20021;-76
2022/04/20 13:47:52;;;;;;;36.15;17.83;;;15.40;88.00;;;;;;4826873;29;20048;-76
2022/04/20 13:50:18;;;;;;;13.48;9.52;;;15.20;78.00;;;;;;4843728;29;20022;-74
2022/04/20 13:52:45;;;;;;;21.13;13.35;;;15.70;84.30;;;;;;4826902;29;20030;-75
2022/04/20 13:55:11;;;;;;;17.17;10.43;;;15.50;77.40;;;;;;4843671;29;20070;-76
2022/04/20 13:57:36;;;;;;;18.00;11.90;;;15.40;77.90;;;;;;4826630;29;20427;-77
2022/04/20 14:00:12;;;;;;;34.60;18.73;;;15.40;75.20;;;;;;4842984;29;20415;-78
2022/04/20 14:02:39;;;;;;;22.60;13.07;;;15.50;78.50;;;;;;4843549;29;20029;-77
2022/04/20 14:05:06;;;;;;;18.13;12.80;;;15.30;75.20;;;;;;4844008;29;20026;-76
2022/04/20 14:07:32;;;;;;;43.28;20.60;;;15.40;73.90;;;;;;4843776;29;20069;-76
2022/04/20 14:09:57;;;;;;;47.72;23.08;;;15.70;73.70;;;;;;4827386;29;20075;-75
2022/04/20 14:12:27;;;;;;;19.20;14.32;;;15.30;76.30;;;;;;4844153;29;20017;-79
2022/04/20 14:14:53;;;;;;;77.07;36.33;;;14.60;75.50;;;;;;4827155;29;20078;-78
2022/04/20 14:17:19;;;;;;;64.70;32.08;;;14.00;79.20;;;;;;4827362;29;20025;-76
2022/04/20 14:19:48;;;;;;;45.83;25.00;;;13.40;81.80;;;;;;4843999;29;20026;-77
2022/04/20 14:22:14;;;;;;;47.95;22.50;;;13.40;89.60;;;;;;4843926;29;20036;-77
2022/04/20 14:24:40;;;;;;;48.80;26.30;;;13.30;87.50;;;;;;4843507;29;20477;-76
2022/04/20 14:32:34;;;;;;;56.45;29.23;;;13.30;89.40;;;;;;4842381;29;20427;-77
2022/04/20 14:35:00;;;;;;;30.40;18.77;;;13.10;89.70;;;;;;4843988;29;20449;-78
2022/04/20 14:37:26;;;;;;;38.20;22.08;;;12.80;93.50;;;;;;4824867;29;20108;-80
2022/04/20 14:39:52;;;;;;;62.30;32.30;;;12.70;95.70;;;;;;4842988;29;20037;-77
2022/04/20 14:42:21;;;;;;;43.58;25.30;;;12.80;99.90;;;;;;4844124;29;20029;-77
2022/04/20 14:44:47;;;;;;;61.78;35.75;;;12.70;99.90;;;;;;4825025;29;20033;-79
2022/04/20 14:47:13;;;;;;;80.05;46.38;;;13.10;99.90;;;;;;4838082;29;20041;-79
2022/04/20 14:49:40;;;;;;;37.50;24.67;;;13.70;99.90;;;;;;4816700;29;20083;-78
2022/04/20 14:52:09;;;;;;;67.88;38.25;;;14.20;96.50;;;;;;4833586;29;20100;-77
2022/04/20 14:54:40;;;;;;;75.50;39.03;;;14.40;92.80;;;;;;4834951;29;20014;-77
2022/04/20 14:57:07;;;;;;;46.03;28.75;;;14.90;90.10;;;;;;4834219;29;20035;-79
2022/04/20 14:59:33;;;;;;;31.98;20.38;;;14.90;87.20;;;;;;4832515;29;20046;-76
2022/04/20 15:02:03;;;;;;;34.67;19.98;;;14.80;89.60;;;;;;4834163;29;20026;-77
2022/04/20 15:04:31;;;;;;;59.38;33.83;;;15.10;90.10;;;;;;4818066;29;20022;-77
2022/04/20 15:06:57;;;;;;;32.72;20.13;;;15.20;82.80;;;;;;4818076;29;20030;-78
2022/04/20 15:09:26;;;;;;;38.17;22.88;;;15.10;80.70;;;;;;4833602;29;20026;-76
2022/04/20 15:11:52;;;;;;;20.85;14.27;;;15.00;82.80;;;;;;4832357;29;20038;-76
2022/04/20 15:14:18;;;;;;;39.88;24.50;;;14.80;80.40;;;;;;4834255;29;20458;-78
2022/04/20 15:16:45;;;;;;;28.25;17.63;;;14.50;83.00;;;;;;4833546;29;20026;-78
2022/04/20 15:19:11;;;;;;;33.80;18.17;;;14.70;84.80;;;;;;4835071;29;20079;-76
2022/04/20 15:21:38;;;;;;;36.90;24.58;;;14.60;82.20;;;;;;4827120;29;20109;-80
2022/04/20 15:24:05;;;;;;;36.28;23.42;;;14.20;82.00;;;;;;4826174;29;20030;-76
2022/04/20 15:26:53;;;;;;;17.85;11.88;;;13.70;82.90;;;;;;4842518;29;20028;-83
2022/04/20 15:29:18;;;;;;;13.70;10.90;;;13.90;82.00;;;;;;4750395;30;20481;-79
2022/04/20 15:31:44;;;;;;;43.58;24.80;;;14.10;80.70;;;;;;4750456;30;20040;-79
2022/04/20 15:34:10;;;;;;;50.15;28.50;;;14.20;79.90;;;;;;4750160;30;20044;-79
2022/04/20 15:36:36;;;;;;;62.65;38.92;;;13.80;78.30;;;;;;4750465;30;20597;-78
2022/04/20 15:39:11;;;;;;;20.10;14.75;;;13.60;80.10;;;;;;4750182;30;20032;-78
2022/04/20 15:41:41;;;;;;;23.67;16.73;;;13.10;82.10;;;;;;4750120;30;20129;-77
2022/04/20 15:44:07;;;;;;;26.00;16.58;;;13.00;87.50;;;;;;4750140;30;20028;-77
2022/04/20 15:46:33;;;;;;;32.17;19.58;;;13.20;89.60;;;;;;4750135;30;20032;-78
2022/04/20 15:48:58;;;;;;;22.13;14.82;;;13.40;90.10;;;;;;4750035;30;20032;-78
2022/04/20 15:51:25;;;;;;;21.27;12.88;;;13.70;82.40;;;;;;4749274;30;20393;-77
2022/04/20 15:53:53;;;;;;;17.52;12.13;;;13.70;81.00;;;;;;4750064;30;20036;-79
2022/04/20 16:01:58;;;;;;;26.60;15.70;;;13.80;83.80;;;;;;4749153;30;20180;-76
2022/04/20 16:04:32;;;;;;;30.77;15.20;;;14.10;86.30;;;;;;4735240;30;20024;-78
2022/04/20 16:07:05;;;;;;;45.72;26.52;;;14.10;80.00;;;;;;4749884;30;20388;-76
2022/04/20 16:09:31;;;;;;;37.83;20.52;;;14.10;83.30;;;;;;4750091;30;20044;-77
2022/04/20 16:11:57;;;;;;;29.00;17.83;;;13.90;82.40;;;;;;4762727;29;20825;-77
2022/04/20 16:14:25;;;;;;;17.95;13.07;;;13.70;80.10;;;;;;4841980;29;20026;-77
2022/04/20 16:16:51;;;;;;;17.60;11.80;;;13.80;80.00;;;;;;4841703;29;20057;-80
2022/04/20 16:19:17;;;;;;;18.08;12.23;;;13.80;78.40;;;;;;4841715;29;20355;-76
2022/04/20 16:21:43;;;;;;;17.02;11.32;;;13.70;79.70;;;;;;4841921;29;20042;-79
2022/04/20 16:24:09;;;;;;;20.70;13.43;;;13.70;78.40;;;;;;4841885;29;20046;-76
2022/04/20 16:26:35;;;;;;;27.85;17.67;;;13.50;78.20;;;;;;4841528;29;20022;-75
2022/04/20 16:29:02;;;;;;;36.70;19.00;;;13.50;80.00;;;;;;4842093;29;20114;-76